LiveATC.Net - Listen to live air traffic control over the Internet!


ICAO: RCTP  IATA: TPE   Airport: Taiwan Taoyuan International Airport
City: Taipei
Country: Taiwan   Continent: Asia
RCTP METAR Weather: RCTP 170400Z 02010KT 9999 FEW015 BKN070 22/18 Q1015 NOSIG RMK A2998
RCTP Flight Activity (FlightAware)
RCTP Tower
Feed Status: UP   Listeners: 3
Listen right in your browser - requires Flash (in browser, requires Flash)
Click here to listen with your own player (launches your MP3 player)
RCTP Tower Audio Archives
FacilityFrequency
Taipei Tower118.700


NOTICE

Unauthorized use prohibited. See LiveATC.net Terms of Service


Find LiveATC Audio Streams


Airport/ARTCC Code

Frequency Search
(e.g., 124.400, 128.75)
Site-wide search
 


Browse LiveATC Feeds
LiveATC Coverage Map
Top 50 LiveATC Feeds
Bad Weather Areas

LiveATC FAQ
Offer a LiveATC Feed
Contact LiveATC.net
Press Inquiries

LiveATC on iPhone
LiveATC on Android

Windows Phone
Windows 8/10

LiveATC Mobile
(Mobile browser)

ATC Audio Archives
Interesting Recordings

LiveATC Forums


Home Page
About LiveATC.net
Make a Donation
Terms of Use
Privacy Policy

Canadian Air Freqs

AIRMETs/SIGMETs

FAA Airport Status
Nat'l Airspace Status
Arrival Demand Charts


Server Software By:
Icecast.org
Liquidsoap